sensor_id;sensor_type;location;lat;lon;timestamp;temperature;humidity
10089;DHT22;51898;49.864;8.550;2024-02-26T00:01:38;8.50;66.70
10089;DHT22;51898;49.864;8.550;2024-02-26T00:04:40;8.40;67.20
10089;DHT22;51898;49.864;8.550;2024-02-26T00:07:45;8.40;67.30
10089;DHT22;51898;49.864;8.550;2024-02-26T00:10:47;8.30;67.50
10089;DHT22;51898;49.864;8.550;2024-02-26T00:13:49;8.30;67.40
10089;DHT22;51898;49.864;8.550;2024-02-26T00:16:51;8.30;67.60
10089;DHT22;51898;49.864;8.550;2024-02-26T00:19:52;8.30;67.50
10089;DHT22;51898;49.864;8.550;2024-02-26T00:22:54;8.40;67.50
10089;DHT22;51898;49.864;8.550;2024-02-26T00:25:57;8.40;67.50
10089;DHT22;51898;49.864;8.550;2024-02-26T00:28:59;8.40;67.40
10089;DHT22;51898;49.864;8.550;2024-02-26T00:32:01;8.40;67.20
10089;DHT22;51898;49.864;8.550;2024-02-26T00:35:03;8.40;66.90
10089;DHT22;51898;49.864;8.550;2024-02-26T00:38:05;8.50;67.00
10089;DHT22;51898;49.864;8.550;2024-02-26T00:41:07;8.50;67.10
10089;DHT22;51898;49.864;8.550;2024-02-26T00:44:08;8.50;67.20
10089;DHT22;51898;49.864;8.550;2024-02-26T00:47:10;8.50;67.70
10089;DHT22;51898;49.864;8.550;2024-02-26T00:50:12;8.50;68.30
10089;DHT22;51898;49.864;8.550;2024-02-26T00:53:14;8.40;68.70
10089;DHT22;51898;49.864;8.550;2024-02-26T00:56:16;8.30;69.40
10089;DHT22;51898;49.864;8.550;2024-02-26T00:59:17;8.30;69.00
10089;DHT22;51898;49.864;8.550;2024-02-26T01:02:19;8.30;68.90
10089;DHT22;51898;49.864;8.550;2024-02-26T01:05:21;8.20;69.00
10089;DHT22;51898;49.864;8.550;2024-02-26T01:08:23;8.30;68.60
10089;DHT22;51898;49.864;8.550;2024-02-26T01:11:24;8.40;68.00
10089;DHT22;51898;49.864;8.550;2024-02-26T01:14:26;8.40;67.90
10089;DHT22;51898;49.864;8.550;2024-02-26T01:17:28;8.40;68.00
10089;DHT22;51898;49.864;8.550;2024-02-26T01:20:30;8.40;67.70
10089;DHT22;51898;49.864;8.550;2024-02-26T01:23:32;8.40;67.90
10089;DHT22;51898;49.864;8.550;2024-02-26T01:26:33;8.40;68.00
10089;DHT22;51898;49.864;8.550;2024-02-26T01:29:35;8.40;68.30
10089;DHT22;51898;49.864;8.550;2024-02-26T01:32:37;8.40;68.20
10089;DHT22;51898;49.864;8.550;2024-02-26T01:35:39;8.40;68.80
10089;DHT22;51898;49.864;8.550;2024-02-26T01:38:41;8.40;68.80
10089;DHT22;51898;49.864;8.550;2024-02-26T01:41:42;8.40;68.80
10089;DHT22;51898;49.864;8.550;2024-02-26T01:44:44;8.40;68.80
10089;DHT22;51898;49.864;8.550;2024-02-26T01:47:48;8.40;68.80
10089;DHT22;51898;49.864;8.550;2024-02-26T01:50:50;8.30;68.80
10089;DHT22;51898;49.864;8.550;2024-02-26T01:53:52;8.20;68.90
10089;DHT22;51898;49.864;8.550;2024-02-26T01:56:54;8.20;69.00
10089;DHT22;51898;49.864;8.550;2024-02-26T01:59:56;8.20;69.00
10089;DHT22;51898;49.864;8.550;2024-02-26T02:02:57;8.20;68.90
10089;DHT22;51898;49.864;8.550;2024-02-26T02:05:59;8.20;69.40
10089;DHT22;51898;49.864;8.550;2024-02-26T02:09:01;8.20;69.20
10089;DHT22;51898;49.864;8.550;2024-02-26T02:12:08;8.20;69.50
10089;DHT22;51898;49.864;8.550;2024-02-26T02:15:11;8.10;69.80
10089;DHT22;51898;49.864;8.550;2024-02-26T02:18:12;8.10;69.80
10089;DHT22;51898;49.864;8.550;2024-02-26T02:21:14;8.10;69.90
10089;DHT22;51898;49.864;8.550;2024-02-26T02:24:16;8.10;70.10
10089;DHT22;51898;49.864;8.550;2024-02-26T02:27:19;8.20;70.20
10089;DHT22;51898;49.864;8.550;2024-02-26T02:30:24;8.10;70.50
10089;DHT22;51898;49.864;8.550;2024-02-26T02:33:27;8.10;71.00
10089;DHT22;51898;49.864;8.550;2024-02-26T02:36:29;8.10;71.40
10089;DHT22;51898;49.864;8.550;2024-02-26T02:39:31;8.10;71.80
10089;DHT22;51898;49.864;8.550;2024-02-26T02:42:33;7.90;72.50
10089;DHT22;51898;49.864;8.550;2024-02-26T02:45:35;7.90;73.00
10089;DHT22;51898;49.864;8.550;2024-02-26T02:48:36;7.90;72.80
10089;DHT22;51898;49.864;8.550;2024-02-26T02:51:38;7.90;72.30
10089;DHT22;51898;49.864;8.550;2024-02-26T02:54:40;7.90;72.00
10089;DHT22;51898;49.864;8.550;2024-02-26T02:57:43;7.90;72.30
10089;DHT22;51898;49.864;8.550;2024-02-26T03:00:46;7.90;72.70
10089;DHT22;51898;49.864;8.550;2024-02-26T03:03:48;7.90;73.50
10089;DHT22;51898;49.864;8.550;2024-02-26T03:06:49;7.80;74.30
10089;DHT22;51898;49.864;8.550;2024-02-26T03:09:51;7.80;74.50
10089;DHT22;51898;49.864;8.550;2024-02-26T03:12:53;7.80;74.40
10089;DHT22;51898;49.864;8.550;2024-02-26T03:15:55;7.80;74.00
10089;DHT22;51898;49.864;8.550;2024-02-26T03:18:57;7.90;73.90
10089;DHT22;51898;49.864;8.550;2024-02-26T03:21:59;7.90;75.60
10089;DHT22;51898;49.864;8.550;2024-02-26T03:25:01;7.80;76.50
10089;DHT22;51898;49.864;8.550;2024-02-26T03:28:03;7.80;77.40
10089;DHT22;51898;49.864;8.550;2024-02-26T03:31:04;7.70;78.40
10089;DHT22;51898;49.864;8.550;2024-02-26T03:34:06;7.70;79.70
10089;DHT22;51898;49.864;8.550;2024-02-26T03:37:08;7.60;80.50
10089;DHT22;51898;49.864;8.550;2024-02-26T03:40:12;7.40;82.10
10089;DHT22;51898;49.864;8.550;2024-02-26T03:43:16;7.30;82.20
10089;DHT22;51898;49.864;8.550;2024-02-26T03:46:18;7.20;83.20
10089;DHT22;51898;49.864;8.550;2024-02-26T04:00:35;7.20;84.20
10089;DHT22;51898;49.864;8.550;2024-02-26T04:10:26;7.20;84.90
10089;DHT22;51898;49.864;8.550;2024-02-26T04:14:40;7.10;86.30
10089;DHT22;51898;49.864;8.550;2024-02-26T04:22:56;7.00;87.00
10089;DHT22;51898;49.864;8.550;2024-02-26T06:29:03;5.70;97.60
10089;DHT22;51898;49.864;8.550;2024-02-26T06:32:05;5.80;97.90
10089;DHT22;51898;49.864;8.550;2024-02-26T06:35:07;5.70;97.90
10089;DHT22;51898;49.864;8.550;2024-02-26T06:38:11;5.80;98.30
10089;DHT22;51898;49.864;8.550;2024-02-26T06:41:15;5.80;98.20
10089;DHT22;51898;49.864;8.550;2024-02-26T06:44:17;5.80;98.50
10089;DHT22;51898;49.864;8.550;2024-02-26T06:47:18;5.80;98.50
10089;DHT22;51898;49.864;8.550;2024-02-26T06:50:21;5.80;98.60
10089;DHT22;51898;49.864;8.550;2024-02-26T06:53:23;5.80;98.50
10089;DHT22;51898;49.864;8.550;2024-02-26T06:56:24;5.80;98.50
10089;DHT22;51898;49.864;8.550;2024-02-26T06:59:26;5.80;98.80
10089;DHT22;51898;49.864;8.550;2024-02-26T07:02:31;5.80;98.90
10089;DHT22;51898;49.864;8.550;2024-02-26T07:05:33;5.90;98.80
10089;DHT22;51898;49.864;8.550;2024-02-26T07:08:35;5.90;98.80
10089;DHT22;51898;49.864;8.550;2024-02-26T07:11:37;5.90;98.80
10089;DHT22;51898;49.864;8.550;2024-02-26T07:14:39;5.90;99.00
10089;DHT22;51898;49.864;8.550;2024-02-26T07:17:40;5.90;99.20
10089;DHT22;51898;49.864;8.550;2024-02-26T07:20:49;5.90;99.30
10089;DHT22;51898;49.864;8.550;2024-02-26T07:23:50;5.90;99.40
10089;DHT22;51898;49.864;8.550;2024-02-26T07:26:53;6.00;99.30
10089;DHT22;51898;49.864;8.550;2024-02-26T07:29:56;6.00;99.60
10089;DHT22;51898;49.864;8.550;2024-02-26T07:32:58;6.00;99.30
10089;DHT22;51898;49.864;8.550;2024-02-26T07:36:00;6.00;99.50
10089;DHT22;51898;49.864;8.550;2024-02-26T07:39:02;6.00;99.30
10089;DHT22;51898;49.864;8.550;2024-02-26T07:42:04;6.10;99.10
10089;DHT22;51898;49.864;8.550;2024-02-26T07:45:06;6.10;98.70
10089;DHT22;51898;49.864;8.550;2024-02-26T07:48:08;6.10;98.80
10089;DHT22;51898;49.864;8.550;2024-02-26T07:51:12;6.20;98.80
10089;DHT22;51898;49.864;8.550;2024-02-26T07:54:15;6.20;98.70
10089;DHT22;51898;49.864;8.550;2024-02-26T07:57:17;6.20;98.70
10089;DHT22;51898;49.864;8.550;2024-02-26T08:00:20;6.20;98.90
10089;DHT22;51898;49.864;8.550;2024-02-26T08:03:21;6.10;98.90
10089;DHT22;51898;49.864;8.550;2024-02-26T08:06:23;6.20;99.10
10089;DHT22;51898;49.864;8.550;2024-02-26T08:09:26;6.20;98.90
10089;DHT22;51898;49.864;8.550;2024-02-26T08:12:28;6.30;99.00
10089;DHT22;51898;49.864;8.550;2024-02-26T08:15:30;6.30;99.20
10089;DHT22;51898;49.864;8.550;2024-02-26T08:18:32;6.30;99.10
10089;DHT22;51898;49.864;8.550;2024-02-26T08:21:34;6.20;98.90
10089;DHT22;51898;49.864;8.550;2024-02-26T08:24:35;6.20;99.10
10089;DHT22;51898;49.864;8.550;2024-02-26T08:27:37;6.20;99.00
10089;DHT22;51898;49.864;8.550;2024-02-26T08:30:39;6.20;99.20
10089;DHT22;51898;49.864;8.550;2024-02-26T08:33:41;6.20;99.30
10089;DHT22;51898;49.864;8.550;2024-02-26T08:36:43;6.30;99.50
10089;DHT22;51898;49.864;8.550;2024-02-26T08:39:45;6.40;98.80
10089;DHT22;51898;49.864;8.550;2024-02-26T08:42:47;6.40;98.90
10089;DHT22;51898;49.864;8.550;2024-02-26T08:45:50;6.40;98.60
10089;DHT22;51898;49.864;8.550;2024-02-26T08:48:51;6.40;98.60
10089;DHT22;51898;49.864;8.550;2024-02-26T08:51:53;6.50;98.90
10089;DHT22;51898;49.864;8.550;2024-02-26T08:54:55;6.70;98.50
10089;DHT22;51898;49.864;8.550;2024-02-26T08:57:57;6.70;98.20
10089;DHT22;51898;49.864;8.550;2024-02-26T09:00:59;6.60;97.80
10089;DHT22;51898;49.864;8.550;2024-02-26T09:04:00;6.70;98.20
10089;DHT22;51898;49.864;8.550;2024-02-26T09:07:03;6.80;97.80
10089;DHT22;51898;49.864;8.550;2024-02-26T09:10:05;6.90;97.60
10089;DHT22;51898;49.864;8.550;2024-02-26T09:13:07;6.90;97.20
10089;DHT22;51898;49.864;8.550;2024-02-26T09:16:09;7.00;97.40
10089;DHT22;51898;49.864;8.550;2024-02-26T09:19:11;7.00;95.90
10089;DHT22;51898;49.864;8.550;2024-02-26T09:22:13;7.00;96.20
10089;DHT22;51898;49.864;8.550;2024-02-26T09:25:19;7.00;96.40
10089;DHT22;51898;49.864;8.550;2024-02-26T09:28:21;7.00;96.30
10089;DHT22;51898;49.864;8.550;2024-02-26T09:31:23;7.00;96.00
10089;DHT22;51898;49.864;8.550;2024-02-26T09:34:24;7.00;94.70
10089;DHT22;51898;49.864;8.550;2024-02-26T09:37:26;7.00;95.20
10089;DHT22;51898;49.864;8.550;2024-02-26T09:40:28;7.00;94.60
10089;DHT22;51898;49.864;8.550;2024-02-26T09:43:35;7.00;95.20
10089;DHT22;51898;49.864;8.550;2024-02-26T09:46:37;7.10;95.70
10089;DHT22;51898;49.864;8.550;2024-02-26T09:49:39;7.20;95.00
10089;DHT22;51898;49.864;8.550;2024-02-26T09:52:42;7.30;95.10
10089;DHT22;51898;49.864;8.550;2024-02-26T09:55:44;7.40;93.50
10089;DHT22;51898;49.864;8.550;2024-02-26T09:58:50;7.60;93.80
10089;DHT22;51898;49.864;8.550;2024-02-26T10:01:56;7.80;94.00
10089;DHT22;51898;49.864;8.550;2024-02-26T10:04:59;7.80;92.60
10089;DHT22;51898;49.864;8.550;2024-02-26T10:08:06;8.00;92.10
10089;DHT22;51898;49.864;8.550;2024-02-26T10:11:10;8.20;90.60
10089;DHT22;51898;49.864;8.550;2024-02-26T10:14:12;8.40;91.30
10089;DHT22;51898;49.864;8.550;2024-02-26T10:17:13;8.70;90.40
10089;DHT22;51898;49.864;8.550;2024-02-26T10:20:17;8.80;89.90
10089;DHT22;51898;49.864;8.550;2024-02-26T10:23:25;8.90;88.90
10089;DHT22;51898;49.864;8.550;2024-02-26T10:26:27;9.10;89.10
10089;DHT22;51898;49.864;8.550;2024-02-26T10:29:29;9.10;87.50
10089;DHT22;51898;49.864;8.550;2024-02-26T10:32:32;9.00;87.20
10089;DHT22;51898;49.864;8.550;2024-02-26T10:35:35;9.30;88.20
10089;DHT22;51898;49.864;8.550;2024-02-26T10:38:41;9.50;85.70
10089;DHT22;51898;49.864;8.550;2024-02-26T10:41:44;9.60;86.20
10089;DHT22;51898;49.864;8.550;2024-02-26T10:44:47;9.60;85.10
10089;DHT22;51898;49.864;8.550;2024-02-26T10:47:50;9.60;85.20
10089;DHT22;51898;49.864;8.550;2024-02-26T10:50:52;9.60;85.50
10089;DHT22;51898;49.864;8.550;2024-02-26T10:53:58;9.60;86.00
10089;DHT22;51898;49.864;8.550;2024-02-26T10:57:03;9.50;85.10
10089;DHT22;51898;49.864;8.550;2024-02-26T11:00:06;9.40;85.20
10089;DHT22;51898;49.864;8.550;2024-02-26T11:03:09;9.40;86.30
10089;DHT22;51898;49.864;8.550;2024-02-26T11:06:12;9.60;84.90
10089;DHT22;51898;49.864;8.550;2024-02-26T11:09:16;9.70;85.20
10089;DHT22;51898;49.864;8.550;2024-02-26T11:12:20;9.70;85.10
10089;DHT22;51898;49.864;8.550;2024-02-26T11:15:23;9.70;84.20
10089;DHT22;51898;49.864;8.550;2024-02-26T11:18:27;9.80;84.20
10089;DHT22;51898;49.864;8.550;2024-02-26T11:21:29;9.80;84.30
10089;DHT22;51898;49.864;8.550;2024-02-26T11:24:41;9.80;83.50
10089;DHT22;51898;49.864;8.550;2024-02-26T11:27:47;9.90;82.60
10089;DHT22;51898;49.864;8.550;2024-02-26T11:30:51;10.10;83.60
10089;DHT22;51898;49.864;8.550;2024-02-26T11:33:54;10.30;82.40
10089;DHT22;51898;49.864;8.550;2024-02-26T11:36:57;10.30;82.90
10089;DHT22;51898;49.864;8.550;2024-02-26T11:39:59;10.40;81.50
10089;DHT22;51898;49.864;8.550;2024-02-26T11:43:05;10.60;80.50
10089;DHT22;51898;49.864;8.550;2024-02-26T11:46:25;10.50;80.50
10089;DHT22;51898;49.864;8.550;2024-02-26T11:52:29;11.00;80.30
10089;DHT22;51898;49.864;8.550;2024-02-26T11:55:34;11.00;80.20
10089;DHT22;51898;49.864;8.550;2024-02-26T11:58:40;11.00;79.60
10089;DHT22;51898;49.864;8.550;2024-02-26T12:01:47;10.90;77.90
10089;DHT22;51898;49.864;8.550;2024-02-26T12:04:53;11.00;79.50
10089;DHT22;51898;49.864;8.550;2024-02-26T12:08:00;10.80;79.70
10089;DHT22;51898;49.864;8.550;2024-02-26T12:11:14;10.60;80.90
10089;DHT22;51898;49.864;8.550;2024-02-26T12:14:18;10.70;80.00
10089;DHT22;51898;49.864;8.550;2024-02-26T12:17:22;10.70;79.80
10089;DHT22;51898;49.864;8.550;2024-02-26T12:20:24;10.90;79.80
10089;DHT22;51898;49.864;8.550;2024-02-26T12:23:25;11.00;78.00
10089;DHT22;51898;49.864;8.550;2024-02-26T12:26:27;10.90;78.10
10089;DHT22;51898;49.864;8.550;2024-02-26T12:29:29;11.00;78.90
10089;DHT22;51898;49.864;8.550;2024-02-26T12:32:31;11.10;78.10
10089;DHT22;51898;49.864;8.550;2024-02-26T12:35:33;11.10;77.80
10089;DHT22;51898;49.864;8.550;2024-02-26T12:38:36;11.20;77.20
10089;DHT22;51898;49.864;8.550;2024-02-26T12:41:39;11.00;78.50
10089;DHT22;51898;49.864;8.550;2024-02-26T12:44:41;11.00;78.30
10089;DHT22;51898;49.864;8.550;2024-02-26T12:47:44;11.00;78.20
10089;DHT22;51898;49.864;8.550;2024-02-26T12:50:47;11.00;78.80
10089;DHT22;51898;49.864;8.550;2024-02-26T12:53:49;11.00;79.00
10089;DHT22;51898;49.864;8.550;2024-02-26T12:56:55;11.00;79.30
10089;DHT22;51898;49.864;8.550;2024-02-26T12:59:57;11.10;78.10
10089;DHT22;51898;49.864;8.550;2024-02-26T13:03:00;11.00;78.50
10089;DHT22;51898;49.864;8.550;2024-02-26T13:06:02;11.10;78.80
10089;DHT22;51898;49.864;8.550;2024-02-26T13:09:05;11.10;78.60
10089;DHT22;51898;49.864;8.550;2024-02-26T13:12:08;11.30;78.40
10089;DHT22;51898;49.864;8.550;2024-02-26T13:15:15;11.30;77.30
10089;DHT22;51898;49.864;8.550;2024-02-26T13:18:17;11.30;76.80
10089;DHT22;51898;49.864;8.550;2024-02-26T13:21:19;11.20;77.10
10089;DHT22;51898;49.864;8.550;2024-02-26T13:24:21;11.40;76.70
10089;DHT22;51898;49.864;8.550;2024-02-26T13:27:24;11.50;76.50
10089;DHT22;51898;49.864;8.550;2024-02-26T13:30:27;11.30;76.30
10089;DHT22;51898;49.864;8.550;2024-02-26T13:33:30;11.40;76.90
10089;DHT22;51898;49.864;8.550;2024-02-26T13:36:32;11.30;76.80
10089;DHT22;51898;49.864;8.550;2024-02-26T13:39:33;11.30;75.90
10089;DHT22;51898;49.864;8.550;2024-02-26T13:42:39;11.40;75.70
10089;DHT22;51898;49.864;8.550;2024-02-26T13:45:41;11.70;75.40
10089;DHT22;51898;49.864;8.550;2024-02-26T13:48:44;11.90;73.60
10089;DHT22;51898;49.864;8.550;2024-02-26T13:51:46;12.10;73.40
10089;DHT22;51898;49.864;8.550;2024-02-26T13:54:47;12.10;72.90
10089;DHT22;51898;49.864;8.550;2024-02-26T13:57:50;11.90;72.70
10089;DHT22;51898;49.864;8.550;2024-02-26T14:00:55;11.60;73.20
10089;DHT22;51898;49.864;8.550;2024-02-26T14:03:57;11.40;74.60
10089;DHT22;51898;49.864;8.550;2024-02-26T14:06:59;11.30;75.00
10089;DHT22;51898;49.864;8.550;2024-02-26T14:10:01;11.20;75.80
10089;DHT22;51898;49.864;8.550;2024-02-26T14:13:04;11.20;75.90
10089;DHT22;51898;49.864;8.550;2024-02-26T14:16:05;11.20;76.10
10089;DHT22;51898;49.864;8.550;2024-02-26T14:19:08;11.20;76.30
10089;DHT22;51898;49.864;8.550;2024-02-26T14:22:13;11.20;76.60
10089;DHT22;51898;49.864;8.550;2024-02-26T14:25:15;11.30;76.80
10089;DHT22;51898;49.864;8.550;2024-02-26T14:28:17;11.30;77.30
10089;DHT22;51898;49.864;8.550;2024-02-26T14:31:26;11.30;77.30
10089;DHT22;51898;49.864;8.550;2024-02-26T14:34:28;11.30;77.60
10089;DHT22;51898;49.864;8.550;2024-02-26T14:37:30;11.20;77.80
10089;DHT22;51898;49.864;8.550;2024-02-26T14:40:32;11.20;78.10
10089;DHT22;51898;49.864;8.550;2024-02-26T14:43:35;11.10;78.10
10089;DHT22;51898;49.864;8.550;2024-02-26T14:46:37;11.10;77.90
10089;DHT22;51898;49.864;8.550;2024-02-26T14:49:38;11.10;77.90
10089;DHT22;51898;49.864;8.550;2024-02-26T14:52:40;11.10;78.20
10089;DHT22;51898;49.864;8.550;2024-02-26T14:55:42;11.10;77.80
10089;DHT22;51898;49.864;8.550;2024-02-26T14:58:43;11.20;77.40
10089;DHT22;51898;49.864;8.550;2024-02-26T15:01:45;11.30;77.20
10089;DHT22;51898;49.864;8.550;2024-02-26T15:04:49;11.20;77.70
10089;DHT22;51898;49.864;8.550;2024-02-26T15:07:51;11.10;78.10
10089;DHT22;51898;49.864;8.550;2024-02-26T15:10:52;11.20;78.30
10089;DHT22;51898;49.864;8.550;2024-02-26T15:13:54;11.20;77.80
10089;DHT22;51898;49.864;8.550;2024-02-26T15:16:56;11.10;77.70
10089;DHT22;51898;49.864;8.550;2024-02-26T15:19:58;11.10;76.80
10089;DHT22;51898;49.864;8.550;2024-02-26T15:23:00;11.10;77.30
10089;DHT22;51898;49.864;8.550;2024-02-26T15:26:02;11.20;77.70
10089;DHT22;51898;49.864;8.550;2024-02-26T15:29:05;11.20;77.80
10089;DHT22;51898;49.864;8.550;2024-02-26T15:32:07;11.30;77.80
10089;DHT22;51898;49.864;8.550;2024-02-26T15:35:09;11.30;77.10
10089;DHT22;51898;49.864;8.550;2024-02-26T15:38:11;11.30;76.90
10089;DHT22;51898;49.864;8.550;2024-02-26T15:41:15;11.50;76.10
10089;DHT22;51898;49.864;8.550;2024-02-26T15:44:18;11.50;76.40
10089;DHT22;51898;49.864;8.550;2024-02-26T15:47:20;11.50;75.80
10089;DHT22;51898;49.864;8.550;2024-02-26T15:50:22;11.40;76.00
10089;DHT22;51898;49.864;8.550;2024-02-26T15:53:24;11.40;75.70
10089;DHT22;51898;49.864;8.550;2024-02-26T15:56:25;11.40;75.20
10089;DHT22;51898;49.864;8.550;2024-02-26T15:59:27;11.40;75.10
10089;DHT22;51898;49.864;8.550;2024-02-26T16:02:29;11.30;75.50
10089;DHT22;51898;49.864;8.550;2024-02-26T16:05:31;11.20;75.70
10089;DHT22;51898;49.864;8.550;2024-02-26T16:08:32;11.20;75.80
10089;DHT22;51898;49.864;8.550;2024-02-26T16:11:35;11.20;75.80
10089;DHT22;51898;49.864;8.550;2024-02-26T16:14:49;11.10;76.00
10089;DHT22;51898;49.864;8.550;2024-02-26T16:17:52;11.10;76.10
10089;DHT22;51898;49.864;8.550;2024-02-26T16:20:57;11.10;76.60
10089;DHT22;51898;49.864;8.550;2024-02-26T16:23:59;11.00;76.80
10089;DHT22;51898;49.864;8.550;2024-02-26T16:27:01;11.00;77.10
10089;DHT22;51898;49.864;8.550;2024-02-26T16:30:07;10.90;77.50
10089;DHT22;51898;49.864;8.550;2024-02-26T16:33:09;10.90;77.60
10089;DHT22;51898;49.864;8.550;2024-02-26T16:36:11;10.70;78.50
10089;DHT22;51898;49.864;8.550;2024-02-26T16:39:14;10.70;79.40
10089;DHT22;51898;49.864;8.550;2024-02-26T16:42:15;10.70;79.80
10089;DHT22;51898;49.864;8.550;2024-02-26T16:45:17;10.60;80.10
10089;DHT22;51898;49.864;8.550;2024-02-26T16:48:19;10.50;80.70
10089;DHT22;51898;49.864;8.550;2024-02-26T16:51:21;10.40;81.20
10089;DHT22;51898;49.864;8.550;2024-02-26T16:54:23;10.30;82.00
10089;DHT22;51898;49.864;8.550;2024-02-26T16:57:25;10.20;82.30
10089;DHT22;51898;49.864;8.550;2024-02-26T17:00:28;10.10;82.80
10089;DHT22;51898;49.864;8.550;2024-02-26T17:03:30;10.10;82.90
10089;DHT22;51898;49.864;8.550;2024-02-26T17:06:32;10.00;83.00
10089;DHT22;51898;49.864;8.550;2024-02-26T17:09:35;9.90;83.30
10089;DHT22;51898;49.864;8.550;2024-02-26T17:12:36;9.90;83.60
10089;DHT22;51898;49.864;8.550;2024-02-26T17:15:38;9.80;83.70
10089;DHT22;51898;49.864;8.550;2024-02-26T17:18:41;9.70;84.10
10089;DHT22;51898;49.864;8.550;2024-02-26T17:21:43;9.70;84.30
10089;DHT22;51898;49.864;8.550;2024-02-26T17:24:45;9.70;84.60
10089;DHT22;51898;49.864;8.550;2024-02-26T17:27:48;9.60;84.60
10089;DHT22;51898;49.864;8.550;2024-02-26T17:30:50;9.60;84.60
10089;DHT22;51898;49.864;8.550;2024-02-26T17:33:52;9.60;84.90
10089;DHT22;51898;49.864;8.550;2024-02-26T17:36:54;9.60;84.90
10089;DHT22;51898;49.864;8.550;2024-02-26T17:39:55;9.60;85.10
10089;DHT22;51898;49.864;8.550;2024-02-26T17:42:58;9.50;84.90
10089;DHT22;51898;49.864;8.550;2024-02-26T17:46:01;9.50;85.20
10089;DHT22;51898;49.864;8.550;2024-02-26T17:49:02;9.50;85.20
10089;DHT22;51898;49.864;8.550;2024-02-26T17:52:05;9.50;85.20
10089;DHT22;51898;49.864;8.550;2024-02-26T17:55:07;9.40;85.40
10089;DHT22;51898;49.864;8.550;2024-02-26T17:58:09;9.30;85.50
10089;DHT22;51898;49.864;8.550;2024-02-26T18:01:11;9.30;85.50
10089;DHT22;51898;49.864;8.550;2024-02-26T18:04:13;9.30;85.30
10089;DHT22;51898;49.864;8.550;2024-02-26T18:07:15;9.30;85.40
10089;DHT22;51898;49.864;8.550;2024-02-26T18:10:17;9.30;85.40
10089;DHT22;51898;49.864;8.550;2024-02-26T18:13:20;9.20;85.30
10089;DHT22;51898;49.864;8.550;2024-02-26T18:16:22;9.20;85.60
10089;DHT22;51898;49.864;8.550;2024-02-26T18:19:24;9.20;85.40
10089;DHT22;51898;49.864;8.550;2024-02-26T18:22:26;9.20;85.30
10089;DHT22;51898;49.864;8.550;2024-02-26T18:25:27;9.20;85.20
10089;DHT22;51898;49.864;8.550;2024-02-26T18:28:31;9.20;85.30
10089;DHT22;51898;49.864;8.550;2024-02-26T18:31:33;9.20;85.20
10089;DHT22;51898;49.864;8.550;2024-02-26T18:34:36;9.20;85.40
10089;DHT22;51898;49.864;8.550;2024-02-26T18:37:39;9.10;85.50
10089;DHT22;51898;49.864;8.550;2024-02-26T18:40:42;9.10;85.60
10089;DHT22;51898;49.864;8.550;2024-02-26T18:43:49;9.10;85.80
10089;DHT22;51898;49.864;8.550;2024-02-26T18:46:53;9.10;85.80
10089;DHT22;51898;49.864;8.550;2024-02-26T18:49:56;9.10;85.90
10089;DHT22;51898;49.864;8.550;2024-02-26T18:53:09;9.10;85.90
10089;DHT22;51898;49.864;8.550;2024-02-26T18:56:15;9.10;86.10
10089;DHT22;51898;49.864;8.550;2024-02-26T18:59:26;9.00;86.20
10089;DHT22;51898;49.864;8.550;2024-02-26T19:02:27;9.00;86.30
10089;DHT22;51898;49.864;8.550;2024-02-26T19:05:31;9.10;86.40
10089;DHT22;51898;49.864;8.550;2024-02-26T19:08:39;9.00;86.50
10089;DHT22;51898;49.864;8.550;2024-02-26T19:11:46;9.00;86.60
10089;DHT22;51898;49.864;8.550;2024-02-26T19:14:50;9.00;86.60
10089;DHT22;51898;49.864;8.550;2024-02-26T19:17:52;9.00;86.40
10089;DHT22;51898;49.864;8.550;2024-02-26T19:20:58;9.10;86.30
10089;DHT22;51898;49.864;8.550;2024-02-26T19:24:01;9.10;86.20
10089;DHT22;51898;49.864;8.550;2024-02-26T19:27:04;9.00;86.10
10089;DHT22;51898;49.864;8.550;2024-02-26T19:30:06;9.10;86.10
10089;DHT22;51898;49.864;8.550;2024-02-26T19:33:08;9.10;86.20
10089;DHT22;51898;49.864;8.550;2024-02-26T19:36:13;9.10;86.10
10089;DHT22;51898;49.864;8.550;2024-02-26T19:39:14;9.10;86.30
10089;DHT22;51898;49.864;8.550;2024-02-26T19:42:16;9.10;86.40
10089;DHT22;51898;49.864;8.550;2024-02-26T19:45:18;9.10;86.50
10089;DHT22;51898;49.864;8.550;2024-02-26T19:48:20;9.00;86.40
10089;DHT22;51898;49.864;8.550;2024-02-26T19:51:22;9.00;86.50
10089;DHT22;51898;49.864;8.550;2024-02-26T19:54:23;9.00;86.70
10089;DHT22;51898;49.864;8.550;2024-02-26T19:57:25;9.00;86.80
10089;DHT22;51898;49.864;8.550;2024-02-26T20:00:28;9.00;86.80
10089;DHT22;51898;49.864;8.550;2024-02-26T20:03:29;8.90;87.00
10089;DHT22;51898;49.864;8.550;2024-02-26T20:06:31;9.00;86.90
10089;DHT22;51898;49.864;8.550;2024-02-26T20:09:35;8.90;87.10
10089;DHT22;51898;49.864;8.550;2024-02-26T20:12:37;8.90;87.40
10089;DHT22;51898;49.864;8.550;2024-02-26T20:15:38;8.80;87.80
10089;DHT22;51898;49.864;8.550;2024-02-26T20:18:40;8.80;88.10
10089;DHT22;51898;49.864;8.550;2024-02-26T20:21:42;8.80;88.50
10089;DHT22;51898;49.864;8.550;2024-02-26T20:24:44;8.80;88.40
10089;DHT22;51898;49.864;8.550;2024-02-26T20:27:46;8.80;88.50
10089;DHT22;51898;49.864;8.550;2024-02-26T20:30:48;8.80;88.50
10089;DHT22;51898;49.864;8.550;2024-02-26T20:33:51;8.70;88.50
10089;DHT22;51898;49.864;8.550;2024-02-26T20:36:52;8.70;88.50
10089;DHT22;51898;49.864;8.550;2024-02-26T20:39:54;8.70;88.30
10089;DHT22;51898;49.864;8.550;2024-02-26T20:42:56;8.70;88.20
10089;DHT22;51898;49.864;8.550;2024-02-26T20:45:58;8.70;88.30
10089;DHT22;51898;49.864;8.550;2024-02-26T20:48:59;8.60;87.70
10089;DHT22;51898;49.864;8.550;2024-02-26T20:52:02;8.70;87.60
10089;DHT22;51898;49.864;8.550;2024-02-26T20:55:04;8.60;87.30
10089;DHT22;51898;49.864;8.550;2024-02-26T20:58:06;8.70;87.10
10089;DHT22;51898;49.864;8.550;2024-02-26T21:01:08;8.60;87.00
10089;DHT22;51898;49.864;8.550;2024-02-26T21:04:09;8.60;86.50
10089;DHT22;51898;49.864;8.550;2024-02-26T21:07:11;8.60;86.50
10089;DHT22;51898;49.864;8.550;2024-02-26T21:10:13;8.60;86.50
10089;DHT22;51898;49.864;8.550;2024-02-26T21:13:15;8.50;86.10
10089;DHT22;51898;49.864;8.550;2024-02-26T21:16:19;8.60;86.10
10089;DHT22;51898;49.864;8.550;2024-02-26T21:19:21;8.50;85.70
10089;DHT22;51898;49.864;8.550;2024-02-26T21:22:23;8.50;85.50
10089;DHT22;51898;49.864;8.550;2024-02-26T21:25:24;8.50;85.10
10089;DHT22;51898;49.864;8.550;2024-02-26T21:28:26;8.50;84.50
10089;DHT22;51898;49.864;8.550;2024-02-26T21:31:29;8.50;84.30
10089;DHT22;51898;49.864;8.550;2024-02-26T21:34:30;8.50;84.20
10089;DHT22;51898;49.864;8.550;2024-02-26T21:37:34;8.40;83.70
10089;DHT22;51898;49.864;8.550;2024-02-26T21:40:36;8.40;83.10
10089;DHT22;51898;49.864;8.550;2024-02-26T21:43:38;8.40;83.00
10089;DHT22;51898;49.864;8.550;2024-02-26T21:46:40;8.40;83.10
10089;DHT22;51898;49.864;8.550;2024-02-26T21:49:45;8.40;82.40
10089;DHT22;51898;49.864;8.550;2024-02-26T21:52:48;8.40;82.70
10089;DHT22;51898;49.864;8.550;2024-02-26T21:55:52;8.30;82.80
10089;DHT22;51898;49.864;8.550;2024-02-26T21:58:53;8.30;82.70